createdAt,value
2023-10-16T00:02:26.030Z,4.9
2023-10-16T00:04:26.137Z,4.9
2023-10-16T00:06:25.667Z,4.9
2023-10-16T00:18:28.251Z,5
2023-10-16T00:20:28.028Z,5
2023-10-16T00:22:27.862Z,5.1
2023-10-16T00:24:27.923Z,5.1
2023-10-16T00:26:31.200Z,5.2
2023-10-16T00:28:30.917Z,5.2
2023-10-16T00:30:30.779Z,5.4
2023-10-16T00:32:30.626Z,5.4
2023-10-16T00:34:30.472Z,5.4
2023-10-16T00:36:30.364Z,5.5
2023-10-16T00:38:30.188Z,5.5
2023-10-16T00:40:33.555Z,5.4
2023-10-16T00:45:34.907Z,5.4
2023-10-16T00:47:34.732Z,5.3
2023-10-16T00:49:34.582Z,5.3
2023-10-16T00:53:37.609Z,5.4
2023-10-16T00:59:37.068Z,5.6
2023-10-16T01:03:36.787Z,5.7
2023-10-16T01:07:39.810Z,6
2023-10-16T01:09:39.689Z,6
2023-10-16T01:17:39.032Z,6.2
2023-10-16T01:21:42.082Z,6.2
2023-10-16T01:23:41.776Z,6.2
2023-10-16T01:27:41.512Z,6.2
2023-10-16T01:29:41.220Z,6.3
2023-10-16T01:31:40.973Z,6.2
2023-10-16T01:33:40.853Z,6.3
2023-10-16T01:37:43.925Z,6.2
2023-10-16T01:54:01.538Z,6.4
2023-10-16T02:06:03.812Z,6.3
2023-10-16T02:10:03.429Z,6.3
2023-10-16T02:12:03.282Z,6.2
2023-10-16T02:14:03.004Z,6.2
2023-10-16T02:16:06.309Z,6.1
2023-10-16T02:18:06.098Z,6.1
2023-10-16T02:26:05.152Z,6.2
2023-10-16T02:28:04.958Z,6.1
2023-10-16T02:30:08.287Z,6.1
2023-10-16T02:34:07.923Z,6.2
2023-10-16T02:35:09.555Z,6.1
2023-10-16T02:39:09.183Z,6.1
2023-10-16T02:41:08.973Z,6.1
2023-10-16T02:43:12.285Z,6.2
2023-10-16T02:45:12.139Z,6.3
2023-10-16T02:47:11.949Z,6.2
2023-10-16T02:49:11.778Z,6.3
2023-10-16T02:51:11.614Z,6.3
2023-10-16T02:53:11.420Z,6.3
2023-10-16T02:55:11.224Z,6.4
2023-10-16T02:57:14.545Z,6.4
2023-10-16T03:03:13.964Z,6.5
2023-10-16T03:05:13.731Z,6.5
2023-10-16T03:09:13.390Z,6.5
2023-10-16T03:11:16.697Z,6.5
2023-10-16T03:13:16.496Z,6.5
2023-10-16T03:15:16.280Z,6.5
2023-10-16T03:17:15.951Z,6.5
2023-10-16T03:21:15.507Z,6.5
2023-10-16T03:23:15.233Z,6.5
2023-10-16T03:27:18.347Z,6.4
2023-10-16T03:29:17.989Z,6.4
2023-10-16T03:30:19.611Z,6.4
2023-10-16T03:40:23.587Z,6.3
2023-10-16T03:48:22.784Z,6.3
2023-10-16T03:50:22.571Z,6.4
2023-10-16T03:52:25.884Z,6.5
2023-10-16T03:54:26.098Z,6.5
2023-10-16T03:56:25.527Z,6.5
2023-10-16T03:58:25.324Z,6.5
2023-10-16T04:00:25.187Z,6.6
2023-10-16T04:04:24.759Z,6.6
2023-10-16T04:06:28.041Z,6.5
2023-10-16T04:18:26.739Z,6.6
2023-10-16T04:20:30.035Z,6.7
2023-10-16T04:24:30.389Z,6.7
2023-10-16T04:25:31.367Z,6.8
2023-10-16T04:31:30.650Z,6.6
2023-10-16T04:33:33.941Z,6.7
2023-10-16T04:35:33.781Z,6.7
2023-10-16T04:37:33.424Z,6.7
2023-10-16T04:43:32.784Z,6.6
2023-10-16T04:45:32.619Z,6.6
2023-10-16T04:47:35.905Z,6.5
2023-10-16T04:53:35.248Z,6.5
2023-10-16T04:55:35.052Z,6.5
2023-10-16T04:57:34.800Z,6.6
2023-10-16T04:59:34.633Z,6.6
2023-10-16T05:01:37.864Z,6.6
2023-10-16T05:03:37.608Z,6.6
2023-10-16T05:05:37.230Z,6.6
2023-10-16T05:07:37.067Z,6.7
2023-10-16T05:09:36.889Z,6.7
2023-10-16T05:13:36.274Z,6.7
2023-10-16T05:15:39.556Z,6.7
2023-10-16T05:17:39.352Z,6.7
2023-10-16T05:19:39.139Z,6.7
2023-10-16T05:22:00.676Z,6.7
2023-10-16T05:24:00.361Z,6.7
2023-10-16T05:26:00.164Z,6.7
2023-10-16T05:28:03.567Z,6.7
2023-10-16T05:30:03.264Z,6.7
2023-10-16T05:50:04.529Z,6.7
2023-10-16T05:54:04.083Z,6.9
2023-10-16T05:56:07.229Z,6.9
2023-10-16T05:58:07.076Z,6.9
2023-10-16T06:00:06.768Z,6.9
2023-10-16T06:06:06.089Z,7
2023-10-16T06:08:05.894Z,7
2023-10-16T06:10:09.078Z,7
2023-10-16T06:15:10.275Z,7.1
2023-10-16T06:17:10.099Z,7.2
2023-10-16T06:19:09.894Z,7.2
2023-10-16T06:31:12.003Z,7.3
2023-10-16T06:33:11.754Z,7.4
2023-10-16T06:35:11.568Z,7.3
2023-10-16T06:41:14.279Z,7.3
2023-10-16T06:43:14.007Z,7.3
2023-10-16T06:45:13.755Z,7.3
2023-10-16T06:47:13.519Z,7.3
2023-10-16T06:49:13.299Z,7.3
2023-10-16T06:51:16.388Z,7.3
2023-10-16T06:53:16.086Z,7.3
2023-10-16T06:55:15.888Z,7.3
2023-10-16T06:57:15.632Z,7.3
2023-10-16T06:59:15.423Z,7.3
2023-10-16T07:01:15.290Z,7.3
2023-10-16T07:03:14.973Z,7.3
2023-10-16T07:05:18.019Z,7.3
2023-10-16T07:07:20.867Z,7.4
2023-10-16T07:09:17.503Z,7.4
2023-10-16T07:10:19.049Z,7.4
2023-10-16T07:12:18.805Z,7.4
2023-10-16T07:20:21.193Z,7.5
2023-10-16T07:22:20.898Z,7.6
2023-10-16T07:32:22.964Z,7.8
2023-10-16T07:34:22.795Z,7.8
2023-10-16T07:36:22.465Z,7.9
2023-10-16T07:38:22.175Z,8
2023-10-16T07:42:21.687Z,8.1
2023-10-16T07:46:24.530Z,8.3
2023-10-16T07:48:24.220Z,8.4
2023-10-16T07:50:23.921Z,8.6
2023-10-16T07:52:23.701Z,8.6
2023-10-16T07:54:23.409Z,8.6
2023-10-16T08:05:26.962Z,8.9
2023-10-16T08:07:26.610Z,9
2023-10-16T08:09:26.472Z,8.9
2023-10-16T08:11:26.038Z,9
2023-10-16T08:13:29.082Z,9.1
2023-10-16T08:15:28.808Z,9.2
2023-10-16T08:23:27.528Z,9.6
2023-10-16T08:25:27.191Z,9.6
2023-10-16T08:27:30.278Z,9.7
2023-10-16T08:29:29.951Z,9.7
2023-10-16T08:31:29.681Z,9.8
2023-10-16T08:33:29.303Z,9.8
2023-10-16T08:49:30.759Z,10.5
2023-10-16T08:51:29.733Z,10.6
2023-10-16T08:53:29.361Z,10.7
2023-10-16T08:55:32.445Z,11.1
2023-10-16T09:01:53.507Z,11.1
2023-10-16T09:03:53.260Z,11.1
2023-10-16T09:07:55.799Z,11.5
2023-10-16T09:09:55.459Z,11.7
2023-10-16T09:11:55.084Z,11.9
2023-10-16T09:13:54.779Z,12.2
2023-10-16T09:15:54.369Z,12.3
2023-10-16T09:17:54.037Z,12.5
2023-10-16T09:20:05.459Z,12.4
2023-10-16T09:23:57.780Z,12.6
2023-10-16T09:27:57.077Z,12.7
2023-10-16T09:29:56.676Z,12.4
2023-10-16T09:37:58.472Z,12.4
2023-10-16T09:41:57.661Z,12.6
2023-10-16T09:43:57.303Z,12.9
2023-10-16T09:45:56.884Z,13.4
2023-10-16T09:53:58.560Z,13.8
2023-10-16T09:55:00.140Z,13.3
2023-10-16T09:58:59.221Z,13.6
2023-10-16T10:00:58.796Z,15.9
2023-10-16T10:03:01.867Z,17.4
2023-10-16T10:07:00.885Z,18.3
2023-10-16T10:11:00.088Z,18.7
2023-10-16T10:12:59.437Z,17.9
2023-10-16T10:14:58.893Z,17.9
2023-10-16T10:19:01.303Z,18.5
2023-10-16T10:21:00.738Z,18.8
2023-10-16T10:23:00.195Z,16.8
2023-10-16T10:28:58.574Z,16.6
2023-10-16T10:31:01.363Z,18.4
2023-10-16T10:37:02.038Z,18.8
2023-10-16T10:38:58.962Z,18.5
2023-10-16T10:40:58.266Z,18
2023-10-16T10:42:59.370Z,18.3
2023-10-16T10:45:00.479Z,17.1
2023-10-16T10:46:59.889Z,16
2023-10-16T10:49:01.553Z,14.8
2023-10-16T10:50:00.723Z,15.7
2023-10-16T10:52:00.094Z,16.5
2023-10-16T11:07:58.408Z,17.9
2023-10-16T11:09:57.751Z,17.3
2023-10-16T11:12:00.412Z,16.5
2023-10-16T11:13:59.708Z,16.2
2023-10-16T11:16:01.327Z,15.4
2023-10-16T11:17:58.463Z,15.9
2023-10-16T11:19:57.807Z,16.2
2023-10-16T11:23:56.548Z,16.6
2023-10-16T11:25:59.389Z,16.9
2023-10-16T11:44:58.680Z,16.1
2023-10-16T11:46:58.153Z,16.5
2023-10-16T11:48:57.589Z,16.9
2023-10-16T11:50:56.764Z,16.9
2023-10-16T11:52:59.588Z,17.1
2023-10-16T11:54:59.032Z,17.1
2023-10-16T12:04:55.869Z,16.2
2023-10-16T12:06:58.625Z,16.1
2023-10-16T12:08:57.955Z,16.3
2023-10-16T12:12:56.833Z,16.2
2023-10-16T12:14:56.200Z,16.6
2023-10-16T12:16:55.615Z,16.2
2023-10-16T12:18:55.028Z,16.3
2023-10-16T12:20:57.867Z,16.3
2023-10-16T12:24:56.737Z,16.2
2023-10-16T12:32:54.450Z,15.6
2023-10-16T12:36:56.772Z,14.7
2023-10-16T12:38:56.177Z,14.6
2023-10-16T12:41:17.348Z,14.3
2023-10-16T12:43:16.778Z,14.2
2023-10-16T12:45:16.245Z,14.2
2023-10-16T12:47:36.872Z,14.1
2023-10-16T12:49:18.593Z,14
2023-10-16T12:51:18.024Z,13.9
2023-10-16T12:55:18.610Z,16
2023-10-16T13:01:18.887Z,16.7
2023-10-16T13:03:18.371Z,16.4
2023-10-16T13:11:16.261Z,14.6
2023-10-16T13:13:15.793Z,14.3
2023-10-16T13:15:18.659Z,14.1
2023-10-16T13:17:18.163Z,14
2023-10-16T13:33:17.630Z,13.6
2023-10-16T13:34:19.378Z,13.4
2023-10-16T13:36:18.602Z,13.4
2023-10-16T13:38:18.094Z,13.2
2023-10-16T13:42:20.578Z,13.2
2023-10-16T13:46:19.678Z,13.2
2023-10-16T13:48:19.191Z,13.3
2023-10-16T13:50:18.735Z,13.4
2023-10-16T13:52:18.352Z,13.4
2023-10-16T13:56:20.787Z,13.3
2023-10-16T13:58:20.337Z,13.3
2023-10-16T14:02:19.526Z,13.4
2023-10-16T14:12:20.663Z,13.3
2023-10-16T14:14:20.248Z,13.2
2023-10-16T14:16:19.952Z,13.4
2023-10-16T14:18:19.341Z,13.6
2023-10-16T14:20:18.902Z,13.8
2023-10-16T14:22:18.473Z,14.1
2023-10-16T14:24:21.443Z,14.6
2023-10-16T14:26:21.010Z,14.7
2023-10-16T14:28:20.583Z,14.9
2023-10-16T14:29:22.084Z,15.1
2023-10-16T14:31:21.805Z,15.1
2023-10-16T14:33:21.187Z,15.3
2023-10-16T14:35:20.777Z,15.1
2023-10-16T14:37:23.744Z,15.3
2023-10-16T14:39:23.295Z,15.4
2023-10-16T14:41:22.855Z,15.4
2023-10-16T14:43:22.423Z,15.3
2023-10-16T14:45:21.945Z,15.5
2023-10-16T14:47:21.514Z,15.9
2023-10-16T14:51:24.047Z,15
2023-10-16T14:53:23.618Z,14.6
2023-10-16T14:55:23.265Z,14.3
2023-10-16T14:57:22.721Z,14.5
2023-10-16T14:59:23.478Z,14.3
2023-10-16T15:01:21.988Z,14.1
2023-10-16T15:03:21.479Z,14.2
2023-10-16T15:07:25.475Z,14.5
2023-10-16T15:13:24.135Z,15.3
2023-10-16T15:15:23.720Z,15.2
2023-10-16T15:24:26.855Z,14.6
2023-10-16T15:26:26.449Z,14.3
2023-10-16T15:28:41.358Z,13.8
2023-10-16T15:34:28.394Z,13
2023-10-16T15:48:28.565Z,12.1
2023-10-16T15:54:27.541Z,11.7
2023-10-16T15:56:26.917Z,11.6
2023-10-16T15:58:26.581Z,11.5
2023-10-16T16:04:29.083Z,11.3
2023-10-16T16:06:28.362Z,11.1
2023-10-16T16:10:27.773Z,10.9
2023-10-16T16:12:27.267Z,10.8
2023-10-16T16:16:30.233Z,10.5
2023-10-16T16:18:29.545Z,10.4
2023-10-16T16:20:51.390Z,10.2
2023-10-16T16:24:50.614Z,10
2023-10-16T16:34:52.187Z,9.4
2023-10-16T16:36:51.846Z,9.3
2023-10-16T16:38:51.563Z,9.1
2023-10-16T16:40:54.586Z,8.9
2023-10-16T16:42:54.249Z,8.8
2023-10-16T16:44:53.891Z,8.7
2023-10-16T16:46:53.539Z,8.6
2023-10-16T16:48:53.276Z,8.6
2023-10-16T16:52:52.575Z,8.5
2023-10-16T16:54:55.649Z,8.4
2023-10-16T16:58:55.045Z,8.3
2023-10-16T17:00:54.722Z,8.3
2023-10-16T17:02:54.434Z,8.2
2023-10-16T17:04:54.062Z,8.1
2023-10-16T17:06:53.726Z,8
2023-10-16T17:08:56.808Z,7.9
2023-10-16T17:10:56.564Z,7.9
2023-10-16T17:12:56.212Z,7.9
2023-10-16T17:13:57.728Z,7.8
2023-10-16T17:15:57.431Z,7.8
2023-10-16T17:17:57.269Z,7.7
2023-10-16T17:19:56.768Z,7.6
2023-10-16T17:23:59.623Z,7.6
2023-10-16T17:27:58.986Z,7.7
2023-10-16T17:29:58.672Z,7.7
2023-10-16T17:31:58.324Z,7.6
2023-10-16T17:47:59.458Z,7.4
2023-10-16T17:50:02.620Z,7.4
2023-10-16T17:52:02.386Z,7.4
2023-10-16T17:54:02.116Z,7.4
2023-10-16T17:56:01.770Z,7.4
2023-10-16T17:58:01.477Z,7.4
2023-10-16T18:02:00.989Z,7.4
2023-10-16T18:04:04.185Z,7.3
2023-10-16T18:08:03.621Z,7.4
2023-10-16T18:09:05.384Z,7.4
2023-10-16T18:11:05.044Z,7.5
2023-10-16T18:13:04.862Z,7.4
2023-10-16T18:15:04.679Z,7.5
2023-10-16T18:17:07.719Z,7.5
2023-10-16T18:19:07.416Z,7.5
2023-10-16T18:23:06.825Z,7.4
2023-10-16T18:25:06.607Z,7.5
2023-10-16T18:33:08.964Z,7.4
2023-10-16T18:35:08.582Z,7.4
2023-10-16T18:37:08.415Z,7.3
2023-10-16T18:39:08.266Z,7.3
2023-10-16T18:45:10.893Z,7.2
2023-10-16T18:47:10.532Z,7.2
2023-10-16T18:55:09.514Z,7.1
2023-10-16T18:57:09.313Z,7.2
2023-10-16T18:59:12.516Z,7.1
2023-10-16T19:01:12.289Z,7.1
2023-10-16T19:06:13.574Z,7.1
2023-10-16T19:10:12.707Z,7
2023-10-16T19:14:15.739Z,7
2023-10-16T19:18:15.352Z,7
2023-10-16T19:20:15.027Z,7
2023-10-16T19:22:14.788Z,7
2023-10-16T19:24:14.510Z,6.9
2023-10-16T19:26:17.690Z,6.9
2023-10-16T19:28:17.541Z,6.9
2023-10-16T19:32:16.967Z,6.9
2023-10-16T19:34:16.637Z,6.9
2023-10-16T19:38:16.256Z,6.9
2023-10-16T19:40:19.482Z,6.8
2023-10-16T19:42:19.302Z,6.8
2023-10-16T19:44:18.980Z,6.8
2023-10-16T19:46:18.835Z,6.8
2023-10-16T19:48:18.585Z,6.8
2023-10-16T19:50:18.223Z,6.7
2023-10-16T19:52:18.065Z,6.7
2023-10-16T19:54:21.267Z,6.6
2023-10-16T19:56:21.054Z,6.6
2023-10-16T19:58:20.774Z,6.6
2023-10-16T20:00:36.558Z,6.5
2023-10-16T20:02:36.413Z,6.5
2023-10-16T20:04:36.073Z,6.4
2023-10-16T20:06:39.366Z,6.4
2023-10-16T20:08:39.199Z,6.4
2023-10-16T20:10:39.010Z,6.3
2023-10-16T20:12:38.882Z,6.3
2023-10-16T20:14:38.541Z,6.3
2023-10-16T20:20:41.393Z,6.3
2023-10-16T20:26:40.721Z,6.2
2023-10-16T20:28:40.472Z,6.3
2023-10-16T20:36:43.232Z,6.1
2023-10-16T20:40:42.791Z,6.1
2023-10-16T20:42:42.606Z,6.1
2023-10-16T20:46:42.150Z,6.1
2023-10-16T20:48:47.037Z,6.1
2023-10-16T20:50:46.848Z,6.1
2023-10-16T20:52:46.652Z,6.1
2023-10-16T20:53:48.288Z,6.1
2023-10-16T20:57:47.938Z,6
2023-10-16T20:59:47.756Z,6
2023-10-16T21:03:50.878Z,6
2023-10-16T21:07:50.287Z,5.9
2023-10-16T21:11:49.979Z,5.7
2023-10-16T21:13:49.753Z,5.7
2023-10-16T21:15:53.093Z,5.7
2023-10-16T21:17:53.045Z,5.7
2023-10-16T21:19:52.741Z,5.6
2023-10-16T21:21:52.554Z,5.6
2023-10-16T21:23:52.445Z,5.6
2023-10-16T21:25:52.242Z,5.6
2023-10-16T21:27:52.042Z,5.5
2023-10-16T21:29:55.338Z,5.5
2023-10-16T21:47:57.502Z,5.3
2023-10-16T21:48:59.103Z,5.3
2023-10-16T21:52:58.648Z,5.1
2023-10-16T22:13:03.929Z,4.9
2023-10-16T22:17:03.649Z,4.9
2023-10-16T22:19:03.496Z,4.9
2023-10-16T22:21:16.269Z,4.9
2023-10-16T22:23:03.164Z,4.8
2023-10-16T22:25:06.505Z,4.7
2023-10-16T22:27:06.376Z,4.7
2023-10-16T22:29:06.174Z,4.6
2023-10-16T22:31:06.081Z,4.6
2023-10-16T22:39:08.989Z,4.5
2023-10-16T22:43:08.653Z,4.5
2023-10-16T22:44:10.338Z,4.5
2023-10-16T22:48:10.108Z,4.5
2023-10-16T22:50:09.925Z,4.5
2023-10-16T22:52:13.253Z,4.5
2023-10-16T22:54:13.202Z,4.4
2023-10-16T23:06:15.774Z,4.4
2023-10-16T23:20:18.252Z,4.3
2023-10-16T23:28:17.699Z,4.2
2023-10-16T23:36:20.651Z,4
2023-10-16T23:56:38.802Z,4
2023-10-16T23:58:38.674Z,4
